createdAt,value
2023-04-16T00:01:27.860Z,101828.22
2023-04-16T00:03:55.234Z,101827.81
2023-04-16T00:06:23.334Z,101805.66
2023-04-16T00:08:50.548Z,101826.91
2023-04-16T00:11:17.750Z,101826.50
2023-04-16T00:13:44.418Z,101830.06
2023-04-16T00:16:11.141Z,101798.06
2023-04-16T00:18:37.865Z,101834.47
2023-04-16T00:21:04.528Z,101823.81
2023-04-16T00:23:31.235Z,101829.69
2023-04-16T00:26:01.600Z,101826.03
2023-04-16T00:28:28.325Z,101758.31
2023-04-16T00:30:55.839Z,101832.84
2023-04-16T00:33:22.820Z,101776.66
2023-04-16T00:35:49.470Z,101752.53
2023-04-16T00:38:16.299Z,101826.59
2023-04-16T00:40:42.921Z,101827.66
2023-04-16T00:43:09.529Z,101825.16
2023-04-16T00:45:36.731Z,101831.88
2023-04-16T00:48:04.283Z,101838.03
2023-04-16T00:53:08.842Z,101831.19
2023-04-16T00:55:35.597Z,101803.47
2023-04-16T00:58:03.603Z,101737.19
2023-04-16T01:00:30.382Z,101807.28
2023-04-16T01:02:57.170Z,101783.09
2023-04-16T01:05:23.850Z,101824.09
2023-04-16T01:07:51.148Z,101795.75
2023-04-16T01:10:17.768Z,101817.75
2023-04-16T01:12:44.396Z,101815.94
2023-04-16T01:15:11.492Z,101826.59
2023-04-16T01:17:38.253Z,101753.41
2023-04-16T01:20:05.380Z,101818.25
2023-04-16T01:22:31.968Z,101832.84
2023-04-16T01:24:58.600Z,101834.66
2023-04-16T01:27:25.162Z,101837.34
2023-04-16T01:29:51.848Z,101778.56
2023-04-16T01:32:18.485Z,101833.13
2023-04-16T01:34:45.122Z,101840.25
2023-04-16T01:37:12.949Z,101845.88
2023-04-16T01:39:39.634Z,101846.75
2023-04-16T01:42:06.253Z,101810.31
2023-04-16T01:44:32.820Z,101848.09
2023-04-16T01:46:59.455Z,101851.75
2023-04-16T01:49:26.040Z,101731.69
2023-04-16T01:51:53.146Z,101776.03
2023-04-16T01:54:19.817Z,101850.13
2023-04-16T01:56:46.507Z,101803.34
2023-04-16T01:59:13.097Z,101841.25
2023-04-16T02:01:39.827Z,101856.84
2023-04-16T02:04:06.687Z,101858.25
2023-04-16T02:06:33.252Z,101860.94
2023-04-16T02:08:59.883Z,101812.06
2023-04-16T02:11:26.650Z,101868.91
2023-04-16T02:13:53.303Z,101870.72
2023-04-16T02:16:19.879Z,101825.63
2023-04-16T02:18:46.548Z,101880.13
2023-04-16T02:21:13.157Z,101856.16
2023-04-16T02:23:41.189Z,101831.38
2023-04-16T02:26:08.805Z,101868.97
2023-04-16T02:28:35.623Z,101839.16
2023-04-16T02:31:02.236Z,101870.59
2023-04-16T02:33:28.922Z,101874.72
2023-04-16T02:35:55.611Z,101872.50
2023-04-16T02:38:22.233Z,101873.69
2023-04-16T02:40:48.910Z,101858.28
2023-04-16T02:43:15.523Z,101833.13
2023-04-16T02:45:42.165Z,101747.84
2023-04-16T02:48:09.801Z,101865.81
2023-04-16T02:50:36.440Z,101837.91
2023-04-16T02:53:03.679Z,101871.88
2023-04-16T02:55:30.246Z,101871.59
2023-04-16T02:57:56.775Z,101875.84
2023-04-16T03:00:23.489Z,101836.34
2023-04-16T03:02:50.184Z,101872.84
2023-04-16T03:05:16.887Z,101882.72
2023-04-16T03:07:43.702Z,101888.00
2023-04-16T03:10:12.070Z,101885.72
2023-04-16T03:12:39.389Z,101881.38
2023-04-16T03:15:06.544Z,101888.97
2023-04-16T03:17:33.161Z,101885.19
2023-04-16T03:19:59.850Z,101887.03
2023-04-16T03:22:26.480Z,101878.94
2023-04-16T03:24:53.166Z,101855.66
2023-04-16T03:27:19.992Z,101892.53
2023-04-16T03:29:46.549Z,101893.19
2023-04-16T03:32:13.161Z,101868.78
2023-04-16T03:34:39.811Z,101876.50
2023-04-16T03:37:06.827Z,101828.53
2023-04-16T03:39:34.374Z,101867.25
2023-04-16T03:42:02.127Z,101887.91
2023-04-16T03:44:28.706Z,101895.66
2023-04-16T03:46:55.471Z,101890.56
2023-04-16T03:49:22.055Z,101858.25
2023-04-16T03:51:48.686Z,101894.66
2023-04-16T03:54:15.717Z,101885.31
2023-04-16T03:56:42.456Z,101895.25
2023-04-16T03:59:09.858Z,101833.19
2023-04-16T04:01:36.715Z,101899.69
2023-04-16T04:04:04.023Z,101878.59
2023-04-16T04:06:31.235Z,101897.75
2023-04-16T04:08:59.060Z,101894.75
2023-04-16T04:11:25.612Z,101859.94
2023-04-16T04:13:52.229Z,101895.31
2023-04-16T04:16:18.851Z,101847.19
2023-04-16T04:18:45.433Z,101906.66
2023-04-16T04:21:12.284Z,101844.25
2023-04-16T04:23:38.900Z,101901.94
2023-04-16T04:26:07.848Z,101903.63
2023-04-16T04:28:35.438Z,101893.03
2023-04-16T04:31:02.234Z,101911.53
2023-04-16T04:33:29.005Z,101914.63
2023-04-16T04:35:55.966Z,101921.31
2023-04-16T04:38:25.394Z,101903.91
2023-04-16T04:40:52.956Z,101919.50
2023-04-16T04:43:20.706Z,101889.09
2023-04-16T04:45:47.579Z,101903.50
2023-04-16T04:48:14.213Z,101913.47
2023-04-16T04:50:42.120Z,101919.59
2023-04-16T04:53:11.653Z,101906.31
2023-04-16T04:55:39.004Z,101841.75
2023-04-16T04:58:06.537Z,101884.06
2023-04-16T05:00:34.102Z,101933.66
2023-04-16T05:03:06.136Z,101926.66
2023-04-16T05:05:32.812Z,101926.97
2023-04-16T05:07:59.442Z,101926.88
2023-04-16T05:10:26.788Z,101925.88
2023-04-16T05:12:53.402Z,101928.69
2023-04-16T05:15:20.110Z,101891.94
2023-04-16T05:17:46.728Z,101863.91
2023-04-16T05:20:13.398Z,101909.19
2023-04-16T05:22:40.011Z,101913.38
2023-04-16T05:25:06.958Z,101942.69
2023-04-16T05:27:33.673Z,101943.34
2023-04-16T05:30:00.238Z,101943.16
2023-04-16T05:32:27.600Z,101938.56
2023-04-16T05:34:54.244Z,101945.91
2023-04-16T05:37:20.879Z,101949.72
2023-04-16T05:39:47.838Z,101960.72
2023-04-16T05:42:14.416Z,101960.53
2023-04-16T05:44:41.077Z,101936.22
2023-04-16T05:47:09.567Z,101965.38
2023-04-16T05:49:37.494Z,101956.06
2023-04-16T05:52:04.820Z,101967.13
2023-04-16T05:54:31.356Z,101974.41
2023-04-16T05:56:58.026Z,101981.56
2023-04-16T05:59:24.727Z,101940.47
2023-04-16T06:01:52.704Z,101972.75
2023-04-16T06:04:19.671Z,101935.81
2023-04-16T06:06:46.600Z,101975.81
2023-04-16T06:09:13.224Z,101977.13
2023-04-16T06:11:41.090Z,101937.88
2023-04-16T06:14:07.790Z,101977.34
2023-04-16T06:16:37.521Z,101965.78
2023-04-16T06:19:04.250Z,101978.41
2023-04-16T06:21:31.919Z,101934.03
2023-04-16T06:23:58.484Z,101966.63
2023-04-16T06:26:25.264Z,101932.41
2023-04-16T06:28:52.040Z,101934.03
2023-04-16T06:31:18.654Z,101988.56
2023-04-16T06:33:45.346Z,101969.00
2023-04-16T06:36:12.499Z,101987.47
2023-04-16T06:38:39.079Z,101997.22
2023-04-16T06:41:05.750Z,101945.25
2023-04-16T06:43:33.777Z,101993.84
2023-04-16T06:46:00.751Z,101922.75
2023-04-16T06:48:27.786Z,102008.66
2023-04-16T06:50:55.413Z,101969.75
2023-04-16T06:53:22.371Z,101997.31
2023-04-16T06:55:49.103Z,102005.09
2023-04-16T06:58:15.875Z,102003.78
2023-04-16T07:00:42.509Z,102000.44
2023-04-16T07:03:09.403Z,102005.53
2023-04-16T07:05:36.151Z,102011.25
2023-04-16T07:08:02.944Z,101994.38
2023-04-16T07:10:29.515Z,102009.50
2023-04-16T07:12:56.281Z,102019.72
2023-04-16T07:15:22.938Z,102021.97
2023-04-16T07:17:49.620Z,102016.16
2023-04-16T07:20:16.384Z,102017.63
2023-04-16T07:22:43.583Z,102026.78
2023-04-16T07:25:10.406Z,101974.81
2023-04-16T07:27:37.015Z,102024.78
2023-04-16T07:30:04.138Z,102026.91
2023-04-16T07:32:31.071Z,101995.66
2023-04-16T07:34:58.073Z,101993.06
2023-04-16T07:37:24.689Z,102020.41
2023-04-16T07:39:51.899Z,102023.00
2023-04-16T07:42:18.671Z,102037.69
2023-04-16T07:44:45.235Z,102035.75
2023-04-16T07:47:11.803Z,102044.88
2023-04-16T07:49:39.548Z,102038.28
2023-04-16T07:52:06.138Z,102040.88
2023-04-16T07:54:32.817Z,102050.41
2023-04-16T07:56:59.429Z,102044.66
2023-04-16T07:59:26.391Z,102039.69
2023-04-16T08:01:54.243Z,102045.09
2023-04-16T08:04:25.663Z,101979.84
2023-04-16T08:06:53.015Z,101997.88
2023-04-16T08:09:21.157Z,102045.50
2023-04-16T08:11:49.421Z,102049.28
2023-04-16T08:14:17.108Z,102051.38
2023-04-16T08:16:43.767Z,102057.22
2023-04-16T08:19:10.732Z,102056.03
2023-04-16T08:21:37.693Z,102056.19
2023-04-16T08:24:04.393Z,102064.03
2023-04-16T08:26:31.485Z,102065.53
2023-04-16T08:28:58.062Z,102079.13
2023-04-16T08:31:24.746Z,102074.69
2023-04-16T08:33:51.344Z,102069.84
2023-04-16T08:36:17.947Z,102076.53
2023-04-16T08:38:44.508Z,102074.13
2023-04-16T08:41:13.175Z,102028.25
2023-04-16T08:43:45.239Z,102084.88
2023-04-16T08:46:12.742Z,102045.34
2023-04-16T08:48:42.307Z,102074.59
2023-04-16T08:51:11.173Z,102074.53
2023-04-16T08:53:52.005Z,102084.34
2023-04-16T08:56:21.517Z,102082.44
2023-04-16T08:58:50.200Z,102083.00
2023-04-16T09:01:19.241Z,102079.91
2023-04-16T09:03:49.347Z,102051.09
2023-04-16T09:06:17.600Z,102085.31
2023-04-16T09:08:46.367Z,102085.78
2023-04-16T09:11:18.317Z,102083.00
2023-04-16T09:13:46.934Z,102083.72
2023-04-16T09:16:14.897Z,102075.22
2023-04-16T09:18:41.644Z,102093.41
2023-04-16T09:21:11.254Z,102077.44
2023-04-16T09:23:41.580Z,102043.88
2023-04-16T09:26:08.476Z,102101.25
2023-04-16T09:28:43.632Z,102089.19
2023-04-16T09:31:12.912Z,102093.50
2023-04-16T09:33:39.737Z,102096.81
2023-04-16T09:36:07.752Z,102084.38
2023-04-16T09:38:48.463Z,102083.31
2023-04-16T09:41:18.532Z,102095.56
2023-04-16T09:43:58.429Z,102089.75
2023-04-16T09:46:42.175Z,102094.06
2023-04-16T09:49:12.943Z,102100.41
2023-04-16T09:51:48.524Z,102113.09
2023-04-16T09:54:15.809Z,102091.59
2023-04-16T09:56:46.347Z,102089.47
2023-04-16T09:59:20.315Z,102099.00
2023-04-16T10:01:47.386Z,102122.75
2023-04-16T10:04:14.135Z,102118.19
2023-04-16T10:06:41.010Z,102118.53
2023-04-16T10:09:09.661Z,102126.53
2023-04-16T10:11:37.815Z,102120.94
2023-04-16T10:14:04.411Z,102131.50
2023-04-16T10:16:31.285Z,102121.13
2023-04-16T10:18:59.037Z,102073.91
2023-04-16T10:21:34.111Z,102069.75
2023-04-16T10:24:01.703Z,102069.25
2023-04-16T10:26:30.050Z,102118.78
2023-04-16T10:28:58.920Z,102084.94
2023-04-16T10:31:27.041Z,102103.81
2023-04-16T10:33:54.399Z,102135.56
2023-04-16T10:36:26.765Z,102140.91
2023-04-16T10:38:58.441Z,102136.25
2023-04-16T10:41:26.980Z,102076.94
2023-04-16T10:43:53.815Z,102131.28
2023-04-16T10:46:25.278Z,102142.13
2023-04-16T10:48:54.577Z,102131.94
2023-04-16T10:51:29.673Z,102152.97
2023-04-16T10:54:17.251Z,102140.53
2023-04-16T10:56:45.804Z,102153.88
2023-04-16T10:59:13.195Z,102144.63
2023-04-16T11:01:45.244Z,102150.38
2023-04-16T11:04:20.993Z,102147.22
2023-04-16T11:07:11.869Z,102152.06
2023-04-16T11:09:46.929Z,102155.25
2023-04-16T11:12:27.311Z,102146.75
2023-04-16T11:14:58.266Z,102144.72
2023-04-16T11:17:29.737Z,102129.44
2023-04-16T11:19:56.733Z,102159.25
2023-04-16T11:22:23.632Z,102151.13
2023-04-16T11:24:56.230Z,102164.81
2023-04-16T11:27:25.880Z,102162.97
2023-04-16T11:29:59.443Z,102121.28
2023-04-16T11:32:26.370Z,102131.03
2023-04-16T11:34:53.116Z,102173.59
2023-04-16T11:37:35.156Z,102164.44
2023-04-16T11:40:04.982Z,102173.06
2023-04-16T11:42:31.695Z,102170.59
2023-04-16T11:45:02.904Z,102163.22
2023-04-16T11:47:31.856Z,102176.91
2023-04-16T11:50:15.177Z,102131.91
2023-04-16T11:52:41.826Z,102141.03
2023-04-16T11:55:08.748Z,102171.97
2023-04-16T11:57:35.459Z,102173.31
2023-04-16T12:00:03.672Z,102175.28
2023-04-16T12:02:40.245Z,102184.81
2023-04-16T12:05:29.009Z,102177.41
2023-04-16T12:07:56.397Z,102181.09
2023-04-16T12:10:23.166Z,102180.84
2023-04-16T12:12:49.752Z,102192.59
2023-04-16T12:15:16.439Z,102188.75
2023-04-16T12:17:43.030Z,102194.41
2023-04-16T12:20:15.496Z,102194.41
2023-04-16T12:22:47.536Z,102182.59
2023-04-16T12:25:16.701Z,102198.88
2023-04-16T12:27:43.487Z,102198.75
2023-04-16T12:30:10.455Z,102157.69
2023-04-16T12:32:37.135Z,102186.28
2023-04-16T12:35:05.221Z,102201.19
2023-04-16T12:37:32.332Z,102151.13
2023-04-16T12:39:58.855Z,102165.06
2023-04-16T12:42:25.513Z,102204.31
2023-04-16T12:44:52.210Z,102185.94
2023-04-16T12:47:18.851Z,102188.16
2023-04-16T12:49:45.898Z,102188.47
2023-04-16T12:52:12.502Z,102189.84
2023-04-16T12:54:39.134Z,102185.31
2023-04-16T12:57:05.752Z,102192.19
2023-04-16T12:59:32.338Z,102120.06
2023-04-16T13:02:02.200Z,102197.97
2023-04-16T13:04:29.045Z,102198.31
2023-04-16T13:06:55.902Z,102145.19
2023-04-16T13:09:22.700Z,102188.75
2023-04-16T13:11:49.243Z,102198.34
2023-04-16T13:14:15.900Z,102162.81
2023-04-16T13:16:42.513Z,102195.25
2023-04-16T13:19:09.356Z,102204.47
2023-04-16T13:21:36.207Z,102185.16
2023-04-16T13:24:02.921Z,102215.47
2023-04-16T13:26:29.537Z,102199.22
2023-04-16T13:28:56.257Z,102220.91
2023-04-16T13:31:23.057Z,102176.75
2023-04-16T13:33:50.818Z,102185.25
2023-04-16T13:36:17.473Z,102182.66
2023-04-16T13:38:44.161Z,102229.22
2023-04-16T13:41:10.858Z,102218.06
2023-04-16T13:43:37.506Z,102201.69
2023-04-16T13:46:04.121Z,102205.00
2023-04-16T13:48:30.973Z,102214.75
2023-04-16T13:50:57.544Z,102232.03
2023-04-16T13:53:24.183Z,102204.38
2023-04-16T13:55:51.018Z,102198.97
2023-04-16T13:58:17.723Z,102204.75
2023-04-16T14:00:44.400Z,102203.81
2023-04-16T14:03:11.351Z,102194.91
2023-04-16T14:05:37.980Z,102207.00
2023-04-16T14:08:04.637Z,102199.97
2023-04-16T14:10:31.669Z,102184.06
2023-04-16T14:12:58.471Z,102215.38
2023-04-16T14:15:27.633Z,102214.41
2023-04-16T14:17:54.364Z,102213.16
2023-04-16T14:20:21.406Z,102153.59
2023-04-16T14:22:48.060Z,102211.34
2023-04-16T14:25:14.742Z,102208.72
2023-04-16T14:27:41.683Z,102215.28
2023-04-16T14:30:08.794Z,102214.78
2023-04-16T14:32:36.388Z,102074.91
2023-04-16T14:35:03.762Z,102217.34
2023-04-16T14:37:30.817Z,102225.63
2023-04-16T14:39:57.434Z,102223.66
2023-04-16T14:42:24.034Z,102218.22
2023-04-16T14:44:51.254Z,102218.69
2023-04-16T14:47:17.872Z,102154.09
2023-04-16T14:49:44.485Z,102218.84
2023-04-16T14:52:11.657Z,102173.63
2023-04-16T14:54:38.246Z,102221.78
2023-04-16T14:57:04.848Z,102225.38
2023-04-16T14:59:32.494Z,102221.44
2023-04-16T15:01:59.241Z,102201.44
2023-04-16T15:04:26.217Z,102200.34
2023-04-16T15:06:55.525Z,102226.25
2023-04-16T15:09:22.292Z,102199.72
2023-04-16T15:11:48.844Z,102226.16
2023-04-16T15:14:15.485Z,102223.25
2023-04-16T15:16:42.227Z,102227.09
2023-04-16T15:19:09.156Z,102161.25
2023-04-16T15:21:35.823Z,102232.19
2023-04-16T15:24:02.720Z,102223.16
2023-04-16T15:26:31.963Z,102232.41
2023-04-16T15:28:58.623Z,102229.44
2023-04-16T15:31:25.375Z,102238.47
2023-04-16T15:33:53.540Z,102228.69
2023-04-16T15:36:20.115Z,102233.16
2023-04-16T15:38:46.932Z,102239.56
2023-04-16T15:41:13.717Z,102226.59
2023-04-16T15:43:40.344Z,102207.59
2023-04-16T15:46:08.103Z,102238.72
2023-04-16T15:48:34.844Z,102237.84
2023-04-16T15:51:01.519Z,102238.34
2023-04-16T15:53:28.479Z,102227.72
2023-04-16T15:55:55.120Z,102234.88
2023-04-16T15:58:21.755Z,102233.28
2023-04-16T16:00:50.056Z,102244.91
2023-04-16T16:03:19.732Z,102248.22
2023-04-16T16:05:48.263Z,102251.88
2023-04-16T16:08:15.830Z,102252.03
2023-04-16T16:10:42.699Z,102254.31
2023-04-16T16:13:13.202Z,102212.19
2023-04-16T16:15:41.529Z,102264.75
2023-04-16T16:18:08.692Z,102217.69
2023-04-16T16:20:35.383Z,102194.47
2023-04-16T16:23:02.164Z,102252.72
2023-04-16T16:25:30.415Z,102232.63
2023-04-16T16:27:57.303Z,102258.72
2023-04-16T16:30:23.893Z,102256.44
2023-04-16T16:32:51.292Z,102247.69
2023-04-16T16:35:17.968Z,102256.91
2023-04-16T16:37:44.707Z,102259.34
2023-04-16T16:40:11.743Z,102184.09
2023-04-16T16:42:38.619Z,102270.34
2023-04-16T16:45:06.268Z,102262.88
2023-04-16T16:47:33.409Z,102202.94
2023-04-16T16:50:02.539Z,102262.22
2023-04-16T16:52:29.655Z,102266.28
2023-04-16T16:54:56.964Z,102261.63
2023-04-16T16:57:27.187Z,102258.56
2023-04-16T16:59:54.776Z,102270.81
2023-04-16T17:02:21.866Z,102273.22
2023-04-16T17:04:48.455Z,102277.13
2023-04-16T17:07:16.693Z,102277.19
2023-04-16T17:09:43.783Z,102220.00
2023-04-16T17:12:10.379Z,102285.75
2023-04-16T17:14:39.937Z,102282.31
2023-04-16T17:17:06.482Z,102287.59
2023-04-16T17:19:33.121Z,102281.84
2023-04-16T17:21:59.722Z,102235.44
2023-04-16T17:24:26.453Z,102305.78
2023-04-16T17:26:54.281Z,102225.94
2023-04-16T17:29:26.109Z,102260.34
2023-04-16T17:31:53.782Z,102307.53
2023-04-16T17:34:21.193Z,102312.41
2023-04-16T17:36:48.122Z,102309.47
2023-04-16T17:39:14.815Z,102311.19
2023-04-16T17:41:41.433Z,102266.31
2023-04-16T17:44:09.837Z,102309.38
2023-04-16T17:46:39.000Z,102308.41
2023-04-16T17:49:05.816Z,102320.84
2023-04-16T17:51:32.717Z,102267.00
2023-04-16T17:53:59.286Z,102324.63
2023-04-16T17:56:26.002Z,102282.28
2023-04-16T17:58:52.605Z,102330.03
2023-04-16T18:01:19.801Z,102269.59
2023-04-16T18:03:46.804Z,102332.94
2023-04-16T18:06:13.663Z,102335.88
2023-04-16T18:08:40.210Z,102330.97
2023-04-16T18:11:08.501Z,102316.59
2023-04-16T18:13:35.726Z,102349.09
2023-04-16T18:16:05.380Z,102304.56
2023-04-16T18:18:31.969Z,102239.59
2023-04-16T18:20:58.569Z,102359.38
2023-04-16T18:23:25.596Z,102352.69
2023-04-16T18:25:52.224Z,102364.38
2023-04-16T18:28:19.051Z,102369.78
2023-04-16T18:30:46.029Z,102360.22
2023-04-16T18:33:42.776Z,102296.97
2023-04-16T18:36:02.672Z,102326.53
2023-04-16T18:38:32.345Z,102357.63
2023-04-16T18:40:58.879Z,102378.94
2023-04-16T18:43:25.638Z,102370.28
2023-04-16T18:45:52.292Z,102357.56
2023-04-16T18:48:18.924Z,102384.56
2023-04-16T18:50:45.832Z,102362.31
2023-04-16T18:53:12.610Z,102342.66
2023-04-16T18:55:39.186Z,102394.22
2023-04-16T18:58:05.951Z,102330.38
2023-04-16T19:00:32.591Z,102399.22
2023-04-16T19:02:59.329Z,102392.13
2023-04-16T19:05:26.062Z,102356.97
2023-04-16T19:07:52.752Z,102407.84
2023-04-16T19:10:19.349Z,102414.69
2023-04-16T19:12:46.139Z,102397.69
2023-04-16T19:15:13.103Z,102417.69
2023-04-16T19:17:40.014Z,102412.59
2023-04-16T19:20:11.454Z,102417.03
2023-04-16T19:22:38.674Z,102408.19
2023-04-16T19:25:06.177Z,102423.69
2023-04-16T19:27:32.883Z,102408.19
2023-04-16T19:29:59.538Z,102434.59
2023-04-16T19:32:26.180Z,102414.84
2023-04-16T19:34:52.807Z,102394.97
2023-04-16T19:37:19.387Z,102390.56
2023-04-16T19:39:46.185Z,102446.00
2023-04-16T19:42:12.807Z,102440.00
2023-04-16T19:44:39.422Z,102434.22
2023-04-16T19:47:06.665Z,102442.03
2023-04-16T19:49:34.633Z,102438.47
2023-04-16T19:52:01.556Z,102441.44
2023-04-16T19:54:28.920Z,102368.94
2023-04-16T19:56:55.609Z,102444.81
2023-04-16T19:59:22.234Z,102435.31
2023-04-16T20:01:48.877Z,102443.13
2023-04-16T20:04:15.721Z,102444.53
2023-04-16T20:06:42.309Z,102439.72
2023-04-16T20:09:09.082Z,102436.66
2023-04-16T20:11:35.872Z,102430.19
2023-04-16T20:14:02.503Z,102436.25
2023-04-16T20:16:30.377Z,102405.41
2023-04-16T20:18:57.621Z,102452.22
2023-04-16T20:21:25.297Z,102448.28
2023-04-16T20:23:51.995Z,102446.25
2023-04-16T20:26:18.787Z,102447.50
2023-04-16T20:28:45.877Z,102425.59
2023-04-16T20:31:13.119Z,102449.91
2023-04-16T20:33:39.758Z,102435.44
2023-04-16T20:36:06.914Z,102414.84
2023-04-16T20:38:35.562Z,102460.91
2023-04-16T20:41:10.654Z,102450.19
2023-04-16T20:43:44.167Z,102451.44
2023-04-16T20:46:12.473Z,102451.38
2023-04-16T20:48:39.211Z,102454.13
2023-04-16T20:51:07.865Z,102462.31
2023-04-16T20:53:34.569Z,102452.22
2023-04-16T20:56:01.390Z,102453.78
2023-04-16T20:58:28.599Z,102459.47
2023-04-16T21:00:56.900Z,102463.59
2023-04-16T21:03:24.592Z,102460.31
2023-04-16T21:05:53.378Z,102437.41
2023-04-16T21:08:20.929Z,102446.88
2023-04-16T21:10:48.250Z,102467.38
2023-04-16T21:13:15.454Z,102456.22
2023-04-16T21:15:43.647Z,102467.13
2023-04-16T21:18:11.078Z,102453.91
2023-04-16T21:20:38.919Z,102464.78
2023-04-16T21:23:06.084Z,102464.31
2023-04-16T21:25:33.598Z,102456.13
2023-04-16T21:28:00.220Z,102477.06
2023-04-16T21:30:27.232Z,102471.75
2023-04-16T21:32:53.815Z,102466.53
2023-04-16T21:35:20.529Z,102467.66
2023-04-16T21:37:47.063Z,102472.22
2023-04-16T21:40:13.765Z,102471.69
2023-04-16T21:42:42.387Z,102464.97
2023-04-16T21:45:10.322Z,102467.50
2023-04-16T21:47:37.447Z,102467.84
2023-04-16T21:50:04.557Z,102436.22
2023-04-16T21:52:33.016Z,102464.50
2023-04-16T21:55:02.650Z,102450.75
2023-04-16T21:57:29.191Z,102389.91
2023-04-16T21:59:55.769Z,102460.78
2023-04-16T22:02:22.524Z,102435.50
2023-04-16T22:04:49.261Z,102447.03
2023-04-16T22:07:16.995Z,102416.34
2023-04-16T22:09:43.984Z,102455.22
2023-04-16T22:12:10.721Z,102466.63
2023-04-16T22:14:42.140Z,102459.03
2023-04-16T22:17:13.033Z,102464.69
2023-04-16T22:19:39.801Z,102421.81
2023-04-16T22:22:06.390Z,102459.00
2023-04-16T22:24:32.944Z,102446.34
2023-04-16T22:26:59.570Z,102467.09
2023-04-16T22:29:27.984Z,102442.84
2023-04-16T22:31:55.336Z,102450.66
2023-04-16T22:34:22.150Z,102485.59
2023-04-16T22:36:48.972Z,102476.13
2023-04-16T22:39:15.574Z,102449.22
2023-04-16T22:41:42.158Z,102480.38
2023-04-16T22:44:08.745Z,102481.69
2023-04-16T22:46:35.489Z,102482.00
2023-04-16T22:49:02.768Z,102485.88
2023-04-16T22:51:30.575Z,102484.03
2023-04-16T22:53:57.171Z,102483.25
2023-04-16T22:56:28.716Z,102471.28
2023-04-16T22:58:55.680Z,102482.06
2023-04-16T23:01:22.546Z,102473.28
2023-04-16T23:03:49.252Z,102471.81
2023-04-16T23:06:16.051Z,102471.53
2023-04-16T23:08:42.703Z,102469.19
2023-04-16T23:11:09.313Z,102467.63
2023-04-16T23:13:35.942Z,102474.31
2023-04-16T23:16:02.614Z,102429.75
2023-04-16T23:18:29.346Z,102421.94
2023-04-16T23:20:55.912Z,102468.75
2023-04-16T23:23:22.524Z,102469.19
2023-04-16T23:25:52.450Z,102471.53
2023-04-16T23:28:19.197Z,102457.91
2023-04-16T23:30:46.146Z,102479.31
2023-04-16T23:33:12.748Z,102472.00
2023-04-16T23:35:39.423Z,102467.19
2023-04-16T23:38:05.951Z,102456.44
2023-04-16T23:40:32.479Z,102461.38
2023-04-16T23:42:59.074Z,102466.78
2023-04-16T23:45:25.735Z,102445.47
2023-04-16T23:47:52.362Z,102458.16
2023-04-16T23:50:19.107Z,102459.91
2023-04-16T23:52:45.789Z,102463.91
2023-04-16T23:55:12.388Z,102433.66
2023-04-16T23:57:38.963Z,102466.69
